sensor_id;sensor_type;location;lat;lon;timestamp;P1;durP1;ratioP1;P2;durP2;ratioP2
3567;SDS011;1798;48.486;9.232;2023-03-17T00:01:20;11.13;;;5.65;;
3567;SDS011;1798;48.486;9.232;2023-03-17T00:03:47;11.35;;;6.10;;
3567;SDS011;1798;48.486;9.232;2023-03-17T00:06:15;10.50;;;5.88;;
3567;SDS011;1798;48.486;9.232;2023-03-17T00:08:44;13.05;;;5.82;;
3567;SDS011;1798;48.486;9.232;2023-03-17T00:11:12;10.93;;;5.80;;
3567;SDS011;1798;48.486;9.232;2023-03-17T00:13:40;15.20;;;5.80;;
3567;SDS011;1798;48.486;9.232;2023-03-17T00:16:15;12.23;;;6.20;;
3567;SDS011;1798;48.486;9.232;2023-03-17T00:18:48;9.85;;;5.20;;
3567;SDS011;1798;48.486;9.232;2023-03-17T00:21:20;10.18;;;5.50;;
3567;SDS011;1798;48.486;9.232;2023-03-17T00:23:51;12.63;;;6.00;;
3567;SDS011;1798;48.486;9.232;2023-03-17T00:26:19;12.80;;;5.55;;
3567;SDS011;1798;48.486;9.232;2023-03-17T00:28:46;19.30;;;4.90;;
3567;SDS011;1798;48.486;9.232;2023-03-17T00:31:15;13.57;;;5.90;;
3567;SDS011;1798;48.486;9.232;2023-03-17T00:33:45;13.15;;;5.32;;
3567;SDS011;1798;48.486;9.232;2023-03-17T00:36:14;10.88;;;5.10;;
3567;SDS011;1798;48.486;9.232;2023-03-17T00:38:52;11.48;;;5.30;;
3567;SDS011;1798;48.486;9.232;2023-03-17T00:41:19;10.45;;;5.70;;
3567;SDS011;1798;48.486;9.232;2023-03-17T00:43:47;10.77;;;6.00;;
3567;SDS011;1798;48.486;9.232;2023-03-17T00:46:18;10.18;;;4.90;;
3567;SDS011;1798;48.486;9.232;2023-03-17T00:48:49;13.80;;;5.47;;
3567;SDS011;1798;48.486;9.232;2023-03-17T00:51:18;12.73;;;5.03;;
3567;SDS011;1798;48.486;9.232;2023-03-17T00:53:46;15.18;;;6.20;;
3567;SDS011;1798;48.486;9.232;2023-03-17T00:56:14;13.15;;;5.43;;
3567;SDS011;1798;48.486;9.232;2023-03-17T00:58:44;11.77;;;5.97;;
3567;SDS011;1798;48.486;9.232;2023-03-17T01:01:11;12.43;;;6.32;;
3567;SDS011;1798;48.486;9.232;2023-03-17T01:03:39;16.17;;;6.10;;
3567;SDS011;1798;48.486;9.232;2023-03-17T01:06:08;11.95;;;6.10;;
3567;SDS011;1798;48.486;9.232;2023-03-17T01:08:39;10.82;;;5.72;;
3567;SDS011;1798;48.486;9.232;2023-03-17T01:11:09;10.13;;;5.77;;
3567;SDS011;1798;48.486;9.232;2023-03-17T01:13:40;10.15;;;5.15;;
3567;SDS011;1798;48.486;9.232;2023-03-17T01:16:13;19.45;;;7.20;;
3567;SDS011;1798;48.486;9.232;2023-03-17T01:19:09;15.65;;;6.38;;
3567;SDS011;1798;48.486;9.232;2023-03-17T01:21:37;15.93;;;6.63;;
3567;SDS011;1798;48.486;9.232;2023-03-17T01:24:05;16.80;;;6.22;;
3567;SDS011;1798;48.486;9.232;2023-03-17T01:26:32;17.35;;;6.10;;
3567;SDS011;1798;48.486;9.232;2023-03-17T01:29:00;16.00;;;6.47;;
3567;SDS011;1798;48.486;9.232;2023-03-17T01:31:32;10.65;;;5.82;;
3567;SDS011;1798;48.486;9.232;2023-03-17T01:34:00;13.65;;;6.30;;
3567;SDS011;1798;48.486;9.232;2023-03-17T01:36:33;11.63;;;5.75;;
3567;SDS011;1798;48.486;9.232;2023-03-17T01:39:02;11.20;;;5.55;;
3567;SDS011;1798;48.486;9.232;2023-03-17T01:41:32;16.35;;;6.47;;
3567;SDS011;1798;48.486;9.232;2023-03-17T01:44:04;15.40;;;5.78;;
3567;SDS011;1798;48.486;9.232;2023-03-17T01:46:33;9.50;;;4.80;;
3567;SDS011;1798;48.486;9.232;2023-03-17T01:49:09;21.52;;;6.13;;
3567;SDS011;1798;48.486;9.232;2023-03-17T01:51:44;10.10;;;5.50;;
3567;SDS011;1798;48.486;9.232;2023-03-17T01:54:14;9.93;;;5.35;;
3567;SDS011;1798;48.486;9.232;2023-03-17T01:56:44;12.10;;;6.72;;
3567;SDS011;1798;48.486;9.232;2023-03-17T01:59:15;8.65;;;4.90;;
3567;SDS011;1798;48.486;9.232;2023-03-17T02:01:49;19.73;;;6.60;;
3567;SDS011;1798;48.486;9.232;2023-03-17T02:04:22;11.77;;;5.70;;
3567;SDS011;1798;48.486;9.232;2023-03-17T02:06:52;12.77;;;6.13;;
3567;SDS011;1798;48.486;9.232;2023-03-17T02:09:20;9.93;;;5.10;;
3567;SDS011;1798;48.486;9.232;2023-03-17T02:11:48;14.03;;;6.90;;
3567;SDS011;1798;48.486;9.232;2023-03-17T02:14:18;11.25;;;5.55;;
3567;SDS011;1798;48.486;9.232;2023-03-17T02:16:45;15.55;;;7.07;;
3567;SDS011;1798;48.486;9.232;2023-03-17T02:19:16;10.15;;;5.50;;
3567;SDS011;1798;48.486;9.232;2023-03-17T02:21:46;11.37;;;6.30;;
3567;SDS011;1798;48.486;9.232;2023-03-17T02:24:18;11.82;;;5.50;;
3567;SDS011;1798;48.486;9.232;2023-03-17T02:26:48;15.60;;;6.30;;
3567;SDS011;1798;48.486;9.232;2023-03-17T02:29:18;12.15;;;5.22;;
3567;SDS011;1798;48.486;9.232;2023-03-17T02:31:46;12.98;;;6.22;;
3567;SDS011;1798;48.486;9.232;2023-03-17T02:34:14;14.02;;;6.80;;
3567;SDS011;1798;48.486;9.232;2023-03-17T02:36:44;8.30;;;4.68;;
3567;SDS011;1798;48.486;9.232;2023-03-17T02:39:14;12.70;;;6.45;;
3567;SDS011;1798;48.486;9.232;2023-03-17T02:41:41;14.82;;;7.13;;
3567;SDS011;1798;48.486;9.232;2023-03-17T02:44:10;16.00;;;6.90;;
3567;SDS011;1798;48.486;9.232;2023-03-17T02:46:37;10.25;;;5.60;;
3567;SDS011;1798;48.486;9.232;2023-03-17T02:49:07;10.80;;;5.40;;
3567;SDS011;1798;48.486;9.232;2023-03-17T02:51:36;11.73;;;6.72;;
3567;SDS011;1798;48.486;9.232;2023-03-17T02:54:05;21.58;;;7.65;;
3567;SDS011;1798;48.486;9.232;2023-03-17T02:56:35;12.70;;;6.45;;
3567;SDS011;1798;48.486;9.232;2023-03-17T02:59:06;17.02;;;7.40;;
3567;SDS011;1798;48.486;9.232;2023-03-17T03:01:34;9.88;;;4.57;;
3567;SDS011;1798;48.486;9.232;2023-03-17T03:04:03;14.65;;;7.90;;
3567;SDS011;1798;48.486;9.232;2023-03-17T03:06:33;15.85;;;7.45;;
3567;SDS011;1798;48.486;9.232;2023-03-17T03:09:00;14.90;;;7.38;;
3567;SDS011;1798;48.486;9.232;2023-03-17T03:11:32;12.73;;;6.80;;
3567;SDS011;1798;48.486;9.232;2023-03-17T03:14:00;12.18;;;6.50;;
3567;SDS011;1798;48.486;9.232;2023-03-17T03:16:27;16.50;;;6.50;;
3567;SDS011;1798;48.486;9.232;2023-03-17T03:18:58;13.55;;;6.00;;
3567;SDS011;1798;48.486;9.232;2023-03-17T03:21:26;18.27;;;7.55;;
3567;SDS011;1798;48.486;9.232;2023-03-17T03:23:53;14.20;;;6.97;;
3567;SDS011;1798;48.486;9.232;2023-03-17T03:26:21;11.85;;;6.00;;
3567;SDS011;1798;48.486;9.232;2023-03-17T03:28:50;14.45;;;6.78;;
3567;SDS011;1798;48.486;9.232;2023-03-17T03:31:21;16.40;;;6.75;;
3567;SDS011;1798;48.486;9.232;2023-03-17T03:33:48;11.88;;;6.30;;
3567;SDS011;1798;48.486;9.232;2023-03-17T03:36:16;9.65;;;5.30;;
3567;SDS011;1798;48.486;9.232;2023-03-17T03:38:43;13.13;;;6.57;;
3567;SDS011;1798;48.486;9.232;2023-03-17T03:41:10;19.52;;;8.20;;
3567;SDS011;1798;48.486;9.232;2023-03-17T03:43:38;15.25;;;7.20;;
3567;SDS011;1798;48.486;9.232;2023-03-17T03:46:07;13.55;;;6.88;;
3567;SDS011;1798;48.486;9.232;2023-03-17T03:48:41;13.73;;;6.47;;
3567;SDS011;1798;48.486;9.232;2023-03-17T03:51:09;15.32;;;6.90;;
3567;SDS011;1798;48.486;9.232;2023-03-17T03:53:37;11.60;;;6.35;;
3567;SDS011;1798;48.486;9.232;2023-03-17T03:56:04;14.55;;;7.28;;
3567;SDS011;1798;48.486;9.232;2023-03-17T03:58:35;16.13;;;6.90;;
3567;SDS011;1798;48.486;9.232;2023-03-17T04:01:09;16.35;;;6.75;;
3567;SDS011;1798;48.486;9.232;2023-03-17T04:03:36;14.10;;;6.00;;
3567;SDS011;1798;48.486;9.232;2023-03-17T04:06:07;11.25;;;6.00;;
3567;SDS011;1798;48.486;9.232;2023-03-17T04:08:38;11.50;;;6.20;;
3567;SDS011;1798;48.486;9.232;2023-03-17T04:11:07;12.98;;;6.25;;
3567;SDS011;1798;48.486;9.232;2023-03-17T04:13:35;13.10;;;6.40;;
3567;SDS011;1798;48.486;9.232;2023-03-17T04:16:03;12.00;;;6.38;;
3567;SDS011;1798;48.486;9.232;2023-03-17T04:18:32;11.40;;;5.82;;
3567;SDS011;1798;48.486;9.232;2023-03-17T04:21:00;16.80;;;6.40;;
3567;SDS011;1798;48.486;9.232;2023-03-17T04:23:28;14.50;;;6.47;;
3567;SDS011;1798;48.486;9.232;2023-03-17T04:25:57;10.07;;;5.65;;
3567;SDS011;1798;48.486;9.232;2023-03-17T04:28:25;14.32;;;6.90;;
3567;SDS011;1798;48.486;9.232;2023-03-17T04:30:56;11.52;;;6.57;;
3567;SDS011;1798;48.486;9.232;2023-03-17T04:33:23;28.27;;;6.63;;
3567;SDS011;1798;48.486;9.232;2023-03-17T04:35:55;11.20;;;5.60;;
3567;SDS011;1798;48.486;9.232;2023-03-17T04:38:22;13.10;;;6.43;;
3567;SDS011;1798;48.486;9.232;2023-03-17T04:40:53;17.10;;;5.80;;
3567;SDS011;1798;48.486;9.232;2023-03-17T04:43:20;11.38;;;6.32;;
3567;SDS011;1798;48.486;9.232;2023-03-17T04:45:47;14.25;;;6.72;;
3567;SDS011;1798;48.486;9.232;2023-03-17T04:48:14;12.43;;;6.75;;
3567;SDS011;1798;48.486;9.232;2023-03-17T04:50:41;11.95;;;5.93;;
3567;SDS011;1798;48.486;9.232;2023-03-17T04:53:13;10.95;;;6.00;;
3567;SDS011;1798;48.486;9.232;2023-03-17T04:55:40;10.60;;;6.10;;
3567;SDS011;1798;48.486;9.232;2023-03-17T04:58:08;12.55;;;6.30;;
3567;SDS011;1798;48.486;9.232;2023-03-17T05:00:36;12.00;;;6.50;;
3567;SDS011;1798;48.486;9.232;2023-03-17T05:03:03;10.50;;;6.82;;
3567;SDS011;1798;48.486;9.232;2023-03-17T05:05:34;12.30;;;6.03;;
3567;SDS011;1798;48.486;9.232;2023-03-17T05:08:02;13.27;;;6.30;;
3567;SDS011;1798;48.486;9.232;2023-03-17T05:10:31;14.45;;;6.50;;
3567;SDS011;1798;48.486;9.232;2023-03-17T05:13:01;17.88;;;6.10;;
3567;SDS011;1798;48.486;9.232;2023-03-17T05:15:29;14.73;;;8.07;;
3567;SDS011;1798;48.486;9.232;2023-03-17T05:17:56;10.90;;;6.20;;
3567;SDS011;1798;48.486;9.232;2023-03-17T05:20:23;12.88;;;6.15;;
3567;SDS011;1798;48.486;9.232;2023-03-17T05:22:51;12.00;;;6.23;;
3567;SDS011;1798;48.486;9.232;2023-03-17T05:25:19;13.20;;;6.60;;
3567;SDS011;1798;48.486;9.232;2023-03-17T05:27:47;13.65;;;6.45;;
3567;SDS011;1798;48.486;9.232;2023-03-17T05:30:15;17.10;;;6.45;;
3567;SDS011;1798;48.486;9.232;2023-03-17T05:32:42;15.95;;;6.97;;
3567;SDS011;1798;48.486;9.232;2023-03-17T05:35:12;14.25;;;7.28;;
3567;SDS011;1798;48.486;9.232;2023-03-17T05:37:39;20.23;;;8.02;;
3567;SDS011;1798;48.486;9.232;2023-03-17T05:40:08;14.30;;;6.20;;
3567;SDS011;1798;48.486;9.232;2023-03-17T05:42:36;11.82;;;6.55;;
3567;SDS011;1798;48.486;9.232;2023-03-17T05:45:08;12.55;;;6.80;;
3567;SDS011;1798;48.486;9.232;2023-03-17T05:47:36;12.63;;;6.53;;
3567;SDS011;1798;48.486;9.232;2023-03-17T05:50:08;12.68;;;6.25;;
3567;SDS011;1798;48.486;9.232;2023-03-17T05:52:36;18.25;;;7.80;;
3567;SDS011;1798;48.486;9.232;2023-03-17T05:55:04;18.08;;;7.07;;
3567;SDS011;1798;48.486;9.232;2023-03-17T05:57:32;12.23;;;5.30;;
3567;SDS011;1798;48.486;9.232;2023-03-17T05:59:59;14.05;;;6.22;;
3567;SDS011;1798;48.486;9.232;2023-03-17T06:02:28;15.23;;;7.70;;
3567;SDS011;1798;48.486;9.232;2023-03-17T06:04:55;17.48;;;6.82;;
3567;SDS011;1798;48.486;9.232;2023-03-17T06:07:22;15.55;;;6.57;;
3567;SDS011;1798;48.486;9.232;2023-03-17T06:09:49;19.65;;;7.75;;
3567;SDS011;1798;48.486;9.232;2023-03-17T06:12:17;14.60;;;6.20;;
3567;SDS011;1798;48.486;9.232;2023-03-17T06:14:44;12.00;;;6.60;;
3567;SDS011;1798;48.486;9.232;2023-03-17T06:17:11;14.32;;;6.88;;
3567;SDS011;1798;48.486;9.232;2023-03-17T06:19:40;19.67;;;7.50;;
3567;SDS011;1798;48.486;9.232;2023-03-17T06:22:07;14.90;;;6.80;;
3567;SDS011;1798;48.486;9.232;2023-03-17T06:24:35;12.65;;;6.63;;
3567;SDS011;1798;48.486;9.232;2023-03-17T06:27:02;16.88;;;6.57;;
3567;SDS011;1798;48.486;9.232;2023-03-17T06:29:30;13.93;;;6.80;;
3567;SDS011;1798;48.486;9.232;2023-03-17T06:31:57;12.90;;;7.15;;
3567;SDS011;1798;48.486;9.232;2023-03-17T06:34:24;14.75;;;6.70;;
3567;SDS011;1798;48.486;9.232;2023-03-17T06:36:53;19.38;;;7.38;;
3567;SDS011;1798;48.486;9.232;2023-03-17T06:39:20;13.30;;;6.53;;
3567;SDS011;1798;48.486;9.232;2023-03-17T06:41:47;11.10;;;5.32;;
3567;SDS011;1798;48.486;9.232;2023-03-17T06:44:14;15.73;;;6.50;;
3567;SDS011;1798;48.486;9.232;2023-03-17T06:46:42;15.97;;;6.93;;
3567;SDS011;1798;48.486;9.232;2023-03-17T06:49:09;13.67;;;6.70;;
3567;SDS011;1798;48.486;9.232;2023-03-17T06:51:37;13.23;;;6.38;;
3567;SDS011;1798;48.486;9.232;2023-03-17T06:54:06;10.50;;;6.45;;
3567;SDS011;1798;48.486;9.232;2023-03-17T06:56:34;10.93;;;6.28;;
3567;SDS011;1798;48.486;9.232;2023-03-17T06:59:01;10.32;;;6.20;;
3567;SDS011;1798;48.486;9.232;2023-03-17T07:01:29;14.93;;;6.30;;
3567;SDS011;1798;48.486;9.232;2023-03-17T07:03:59;19.35;;;7.55;;
3567;SDS011;1798;48.486;9.232;2023-03-17T07:06:26;15.20;;;7.35;;
3567;SDS011;1798;48.486;9.232;2023-03-17T07:08:53;17.05;;;6.28;;
3567;SDS011;1798;48.486;9.232;2023-03-17T07:11:22;14.70;;;6.25;;
3567;SDS011;1798;48.486;9.232;2023-03-17T07:13:50;15.35;;;7.40;;
3567;SDS011;1798;48.486;9.232;2023-03-17T07:16:17;11.70;;;6.43;;
3567;SDS011;1798;48.486;9.232;2023-03-17T07:18:45;17.33;;;7.88;;
3567;SDS011;1798;48.486;9.232;2023-03-17T07:21:12;12.48;;;6.53;;
3567;SDS011;1798;48.486;9.232;2023-03-17T07:23:39;12.40;;;6.38;;
3567;SDS011;1798;48.486;9.232;2023-03-17T07:26:06;11.75;;;6.43;;
3567;SDS011;1798;48.486;9.232;2023-03-17T07:28:35;17.08;;;7.20;;
3567;SDS011;1798;48.486;9.232;2023-03-17T07:31:02;26.63;;;8.70;;
3567;SDS011;1798;48.486;9.232;2023-03-17T07:33:32;18.00;;;8.10;;
3567;SDS011;1798;48.486;9.232;2023-03-17T07:36:00;17.20;;;7.60;;
3567;SDS011;1798;48.486;9.232;2023-03-17T07:38:27;21.52;;;8.25;;
3567;SDS011;1798;48.486;9.232;2023-03-17T07:40:54;17.07;;;7.70;;
3567;SDS011;1798;48.486;9.232;2023-03-17T07:43:21;11.27;;;6.20;;
3567;SDS011;1798;48.486;9.232;2023-03-17T07:45:49;16.55;;;6.93;;
3567;SDS011;1798;48.486;9.232;2023-03-17T07:48:17;26.58;;;7.95;;
3567;SDS011;1798;48.486;9.232;2023-03-17T07:50:44;24.27;;;7.85;;
3567;SDS011;1798;48.486;9.232;2023-03-17T07:53:11;12.98;;;6.43;;
3567;SDS011;1798;48.486;9.232;2023-03-17T07:55:39;22.13;;;7.50;;
3567;SDS011;1798;48.486;9.232;2023-03-17T07:58:06;12.95;;;6.40;;
3567;SDS011;1798;48.486;9.232;2023-03-17T08:00:34;18.15;;;8.45;;
3567;SDS011;1798;48.486;9.232;2023-03-17T08:03:03;13.80;;;7.63;;
3567;SDS011;1798;48.486;9.232;2023-03-17T08:05:30;13.48;;;7.13;;
3567;SDS011;1798;48.486;9.232;2023-03-17T08:07:58;14.80;;;6.28;;
3567;SDS011;1798;48.486;9.232;2023-03-17T08:10:25;13.80;;;5.80;;
3567;SDS011;1798;48.486;9.232;2023-03-17T08:12:52;23.17;;;8.55;;
3567;SDS011;1798;48.486;9.232;2023-03-17T08:15:19;20.13;;;8.27;;
3567;SDS011;1798;48.486;9.232;2023-03-17T08:17:46;16.80;;;7.10;;
3567;SDS011;1798;48.486;9.232;2023-03-17T08:20:15;26.55;;;9.20;;
3567;SDS011;1798;48.486;9.232;2023-03-17T08:22:42;16.50;;;7.80;;
3567;SDS011;1798;48.486;9.232;2023-03-17T08:25:09;11.98;;;6.68;;
3567;SDS011;1798;48.486;9.232;2023-03-17T08:27:37;22.60;;;6.85;;
3567;SDS011;1798;48.486;9.232;2023-03-17T08:30:04;18.55;;;7.80;;
3567;SDS011;1798;48.486;9.232;2023-03-17T08:32:32;21.67;;;9.07;;
3567;SDS011;1798;48.486;9.232;2023-03-17T08:35:00;20.08;;;8.05;;
3567;SDS011;1798;48.486;9.232;2023-03-17T08:37:32;12.05;;;6.35;;
3567;SDS011;1798;48.486;9.232;2023-03-17T08:40:03;17.75;;;8.10;;
3567;SDS011;1798;48.486;9.232;2023-03-17T08:42:34;21.48;;;7.28;;
3567;SDS011;1798;48.486;9.232;2023-03-17T08:45:01;15.02;;;7.72;;
3567;SDS011;1798;48.486;9.232;2023-03-17T08:47:30;22.50;;;7.90;;
3567;SDS011;1798;48.486;9.232;2023-03-17T08:49:58;23.27;;;7.40;;
3567;SDS011;1798;48.486;9.232;2023-03-17T08:52:25;18.83;;;7.88;;
3567;SDS011;1798;48.486;9.232;2023-03-17T08:54:54;14.45;;;7.20;;
3567;SDS011;1798;48.486;9.232;2023-03-17T08:57:25;23.75;;;8.05;;
3567;SDS011;1798;48.486;9.232;2023-03-17T08:59:56;13.82;;;6.63;;
3567;SDS011;1798;48.486;9.232;2023-03-17T09:02:23;21.00;;;7.73;;
3567;SDS011;1798;48.486;9.232;2023-03-17T09:04:54;12.95;;;6.47;;
3567;SDS011;1798;48.486;9.232;2023-03-17T09:07:25;14.63;;;7.07;;
3567;SDS011;1798;48.486;9.232;2023-03-17T09:09:54;15.73;;;7.38;;
3567;SDS011;1798;48.486;9.232;2023-03-17T09:12:26;14.27;;;6.80;;
3567;SDS011;1798;48.486;9.232;2023-03-17T09:14:54;23.80;;;8.18;;
3567;SDS011;1798;48.486;9.232;2023-03-17T09:17:21;28.58;;;7.22;;
3567;SDS011;1798;48.486;9.232;2023-03-17T09:19:49;17.83;;;6.97;;
3567;SDS011;1798;48.486;9.232;2023-03-17T09:22:17;15.73;;;7.88;;
3567;SDS011;1798;48.486;9.232;2023-03-17T09:24:47;15.50;;;6.60;;
3567;SDS011;1798;48.486;9.232;2023-03-17T09:27:16;12.50;;;6.05;;
3567;SDS011;1798;48.486;9.232;2023-03-17T09:29:43;13.68;;;7.43;;
3567;SDS011;1798;48.486;9.232;2023-03-17T09:32:11;12.68;;;6.60;;
3567;SDS011;1798;48.486;9.232;2023-03-17T09:34:39;17.65;;;7.68;;
3567;SDS011;1798;48.486;9.232;2023-03-17T09:37:07;10.00;;;5.80;;
3567;SDS011;1798;48.486;9.232;2023-03-17T09:39:38;12.63;;;6.20;;
3567;SDS011;1798;48.486;9.232;2023-03-17T09:42:08;15.07;;;6.55;;
3567;SDS011;1798;48.486;9.232;2023-03-17T09:45:01;19.90;;;7.65;;
3567;SDS011;1798;48.486;9.232;2023-03-17T09:47:40;11.95;;;6.07;;
3567;SDS011;1798;48.486;9.232;2023-03-17T09:50:15;12.88;;;6.90;;
3567;SDS011;1798;48.486;9.232;2023-03-17T09:52:45;20.45;;;5.95;;
3567;SDS011;1798;48.486;9.232;2023-03-17T09:55:15;24.35;;;7.63;;
3567;SDS011;1798;48.486;9.232;2023-03-17T09:57:50;10.88;;;5.93;;
3567;SDS011;1798;48.486;9.232;2023-03-17T10:00:21;10.80;;;5.30;;
3567;SDS011;1798;48.486;9.232;2023-03-17T10:02:53;16.80;;;7.50;;
3567;SDS011;1798;48.486;9.232;2023-03-17T10:05:23;14.15;;;6.85;;
3567;SDS011;1798;48.486;9.232;2023-03-17T10:07:53;14.93;;;6.40;;
3567;SDS011;1798;48.486;9.232;2023-03-17T10:10:25;13.82;;;6.43;;
3567;SDS011;1798;48.486;9.232;2023-03-17T10:12:58;15.30;;;6.85;;
3567;SDS011;1798;48.486;9.232;2023-03-17T10:15:32;20.13;;;6.75;;
3567;SDS011;1798;48.486;9.232;2023-03-17T10:18:07;11.93;;;6.00;;
3567;SDS011;1798;48.486;9.232;2023-03-17T10:20:35;25.10;;;7.20;;
3567;SDS011;1798;48.486;9.232;2023-03-17T10:23:10;18.58;;;6.75;;
3567;SDS011;1798;48.486;9.232;2023-03-17T10:25:43;15.20;;;6.47;;
3567;SDS011;1798;48.486;9.232;2023-03-17T10:28:15;12.77;;;5.95;;
3567;SDS011;1798;48.486;9.232;2023-03-17T10:30:50;20.27;;;7.07;;
3567;SDS011;1798;48.486;9.232;2023-03-17T10:33:17;39.88;;;6.65;;
3567;SDS011;1798;48.486;9.232;2023-03-17T10:35:44;16.98;;;6.40;;
3567;SDS011;1798;48.486;9.232;2023-03-17T10:38:15;16.40;;;6.57;;
3567;SDS011;1798;48.486;9.232;2023-03-17T10:40:44;14.90;;;5.95;;
3567;SDS011;1798;48.486;9.232;2023-03-17T10:43:17;15.57;;;6.65;;
3567;SDS011;1798;48.486;9.232;2023-03-17T10:45:47;11.95;;;5.90;;
3567;SDS011;1798;48.486;9.232;2023-03-17T10:48:21;23.73;;;7.45;;
3567;SDS011;1798;48.486;9.232;2023-03-17T10:50:49;17.63;;;7.87;;
3567;SDS011;1798;48.486;9.232;2023-03-17T10:53:17;21.60;;;6.90;;
3567;SDS011;1798;48.486;9.232;2023-03-17T10:55:52;25.15;;;7.93;;
3567;SDS011;1798;48.486;9.232;2023-03-17T10:58:24;27.05;;;8.30;;
3567;SDS011;1798;48.486;9.232;2023-03-17T11:01:02;23.08;;;6.97;;
3567;SDS011;1798;48.486;9.232;2023-03-17T11:03:32;25.67;;;7.90;;
3567;SDS011;1798;48.486;9.232;2023-03-17T11:06:03;25.77;;;8.57;;
3567;SDS011;1798;48.486;9.232;2023-03-17T11:08:33;23.98;;;9.38;;
3567;SDS011;1798;48.486;9.232;2023-03-17T11:11:04;26.48;;;7.97;;
3567;SDS011;1798;48.486;9.232;2023-03-17T11:13:33;20.20;;;7.72;;
3567;SDS011;1798;48.486;9.232;2023-03-17T11:16:04;17.20;;;7.80;;
3567;SDS011;1798;48.486;9.232;2023-03-17T11:18:36;25.60;;;8.02;;
3567;SDS011;1798;48.486;9.232;2023-03-17T11:21:04;17.55;;;7.60;;
3567;SDS011;1798;48.486;9.232;2023-03-17T11:26:32;27.02;;;8.05;;
3567;SDS011;1798;48.486;9.232;2023-03-17T11:29:19;17.98;;;7.32;;
3567;SDS011;1798;48.486;9.232;2023-03-17T11:31:51;15.80;;;6.95;;
3567;SDS011;1798;48.486;9.232;2023-03-17T11:34:24;21.60;;;6.87;;
3567;SDS011;1798;48.486;9.232;2023-03-17T11:36:59;14.13;;;6.78;;
3567;SDS011;1798;48.486;9.232;2023-03-17T11:39:30;23.95;;;7.65;;
3567;SDS011;1798;48.486;9.232;2023-03-17T11:42:03;19.55;;;7.32;;
3567;SDS011;1798;48.486;9.232;2023-03-17T11:44:39;15.30;;;7.10;;
3567;SDS011;1798;48.486;9.232;2023-03-17T11:47:16;19.80;;;6.95;;
3567;SDS011;1798;48.486;9.232;2023-03-17T11:49:53;18.98;;;7.50;;
3567;SDS011;1798;48.486;9.232;2023-03-17T11:52:27;21.35;;;7.80;;
3567;SDS011;1798;48.486;9.232;2023-03-17T11:55:00;17.37;;;7.27;;
3567;SDS011;1798;48.486;9.232;2023-03-17T11:57:34;15.30;;;6.80;;
3567;SDS011;1798;48.486;9.232;2023-03-17T12:00:13;16.10;;;6.97;;
3567;SDS011;1798;48.486;9.232;2023-03-17T12:02:44;15.85;;;7.15;;
3567;SDS011;1798;48.486;9.232;2023-03-17T12:05:13;13.52;;;7.00;;
3567;SDS011;1798;48.486;9.232;2023-03-17T12:07:42;18.13;;;7.28;;
3567;SDS011;1798;48.486;9.232;2023-03-17T12:10:13;12.45;;;6.53;;
3567;SDS011;1798;48.486;9.232;2023-03-17T12:12:43;15.65;;;7.00;;
3567;SDS011;1798;48.486;9.232;2023-03-17T12:15:17;12.38;;;5.95;;
3567;SDS011;1798;48.486;9.232;2023-03-17T12:17:50;14.95;;;7.00;;
3567;SDS011;1798;48.486;9.232;2023-03-17T12:20:22;17.20;;;7.20;;
3567;SDS011;1798;48.486;9.232;2023-03-17T12:22:52;20.48;;;6.13;;
3567;SDS011;1798;48.486;9.232;2023-03-17T12:25:22;18.60;;;6.43;;
3567;SDS011;1798;48.486;9.232;2023-03-17T12:27:53;19.10;;;6.55;;
3567;SDS011;1798;48.486;9.232;2023-03-17T12:30:27;13.32;;;6.47;;
3567;SDS011;1798;48.486;9.232;2023-03-17T12:32:58;18.90;;;7.43;;
3567;SDS011;1798;48.486;9.232;2023-03-17T12:35:30;17.73;;;6.67;;
3567;SDS011;1798;48.486;9.232;2023-03-17T12:37:59;22.10;;;6.68;;
3567;SDS011;1798;48.486;9.232;2023-03-17T12:40:29;16.05;;;6.82;;
3567;SDS011;1798;48.486;9.232;2023-03-17T12:43:02;32.35;;;6.50;;
3567;SDS011;1798;48.486;9.232;2023-03-17T12:45:45;20.13;;;7.40;;
3567;SDS011;1798;48.486;9.232;2023-03-17T12:48:28;13.53;;;5.67;;
3567;SDS011;1798;48.486;9.232;2023-03-17T12:51:14;15.17;;;6.23;;
3567;SDS011;1798;48.486;9.232;2023-03-17T12:54:03;17.80;;;6.28;;
3567;SDS011;1798;48.486;9.232;2023-03-17T12:56:36;16.93;;;5.50;;
3567;SDS011;1798;48.486;9.232;2023-03-17T12:59:12;11.82;;;5.53;;
3567;SDS011;1798;48.486;9.232;2023-03-17T13:01:43;13.00;;;5.60;;
3567;SDS011;1798;48.486;9.232;2023-03-17T13:04:15;14.03;;;5.80;;
3567;SDS011;1798;48.486;9.232;2023-03-17T13:06:52;20.53;;;6.60;;
3567;SDS011;1798;48.486;9.232;2023-03-17T13:09:33;15.10;;;5.60;;
3567;SDS011;1798;48.486;9.232;2023-03-17T13:12:04;14.23;;;6.28;;
3567;SDS011;1798;48.486;9.232;2023-03-17T13:14:40;16.73;;;6.40;;
3567;SDS011;1798;48.486;9.232;2023-03-17T13:20:08;16.85;;;5.50;;
3567;SDS011;1798;48.486;9.232;2023-03-17T13:22:39;16.73;;;6.15;;
3567;SDS011;1798;48.486;9.232;2023-03-17T13:25:12;11.37;;;5.57;;
3567;SDS011;1798;48.486;9.232;2023-03-17T13:27:44;9.73;;;4.77;;
3567;SDS011;1798;48.486;9.232;2023-03-17T13:33:19;17.60;;;5.15;;
3567;SDS011;1798;48.486;9.232;2023-03-17T13:35:55;19.75;;;5.68;;
3567;SDS011;1798;48.486;9.232;2023-03-17T13:38:39;15.10;;;5.60;;
3567;SDS011;1798;48.486;9.232;2023-03-17T13:41:18;11.52;;;5.03;;
3567;SDS011;1798;48.486;9.232;2023-03-17T13:44:08;14.67;;;4.60;;
3567;SDS011;1798;48.486;9.232;2023-03-17T13:46:53;14.52;;;5.25;;
3567;SDS011;1798;48.486;9.232;2023-03-17T13:49:23;11.07;;;5.10;;
3567;SDS011;1798;48.486;9.232;2023-03-17T13:51:54;13.70;;;5.70;;
3567;SDS011;1798;48.486;9.232;2023-03-17T13:54:28;10.20;;;4.88;;
3567;SDS011;1798;48.486;9.232;2023-03-17T13:56:57;11.75;;;5.05;;
3567;SDS011;1798;48.486;9.232;2023-03-17T13:59:31;16.33;;;5.43;;
3567;SDS011;1798;48.486;9.232;2023-03-17T14:02:02;11.88;;;5.05;;
3567;SDS011;1798;48.486;9.232;2023-03-17T14:04:42;10.55;;;5.18;;
3567;SDS011;1798;48.486;9.232;2023-03-17T14:07:17;13.38;;;6.10;;
3567;SDS011;1798;48.486;9.232;2023-03-17T14:09:49;11.77;;;5.43;;
3567;SDS011;1798;48.486;9.232;2023-03-17T14:12:17;11.45;;;4.70;;
3567;SDS011;1798;48.486;9.232;2023-03-17T14:14:48;11.30;;;4.40;;
3567;SDS011;1798;48.486;9.232;2023-03-17T14:17:18;10.95;;;4.97;;
3567;SDS011;1798;48.486;9.232;2023-03-17T14:20:01;16.65;;;6.10;;
3567;SDS011;1798;48.486;9.232;2023-03-17T14:22:32;15.88;;;5.57;;
3567;SDS011;1798;48.486;9.232;2023-03-17T14:25:05;12.85;;;4.72;;
3567;SDS011;1798;48.486;9.232;2023-03-17T14:27:40;16.92;;;4.57;;
3567;SDS011;1798;48.486;9.232;2023-03-17T14:30:07;27.93;;;4.80;;
3567;SDS011;1798;48.486;9.232;2023-03-17T14:32:44;16.00;;;4.33;;
3567;SDS011;1798;48.486;9.232;2023-03-17T14:35:14;11.27;;;4.22;;
3567;SDS011;1798;48.486;9.232;2023-03-17T14:37:42;11.20;;;3.80;;
3567;SDS011;1798;48.486;9.232;2023-03-17T14:40:20;16.23;;;4.20;;
3567;SDS011;1798;48.486;9.232;2023-03-17T14:42:48;14.65;;;4.20;;
3567;SDS011;1798;48.486;9.232;2023-03-17T14:45:18;13.20;;;4.10;;
3567;SDS011;1798;48.486;9.232;2023-03-17T14:47:49;14.00;;;4.28;;
3567;SDS011;1798;48.486;9.232;2023-03-17T14:50:19;14.50;;;4.20;;
3567;SDS011;1798;48.486;9.232;2023-03-17T14:52:54;14.88;;;4.20;;
3567;SDS011;1798;48.486;9.232;2023-03-17T14:55:36;10.95;;;4.10;;
3567;SDS011;1798;48.486;9.232;2023-03-17T14:58:07;10.20;;;4.28;;
3567;SDS011;1798;48.486;9.232;2023-03-17T15:00:38;11.25;;;4.03;;
3567;SDS011;1798;48.486;9.232;2023-03-17T15:03:16;8.73;;;3.65;;
3567;SDS011;1798;48.486;9.232;2023-03-17T15:05:46;9.50;;;3.90;;
3567;SDS011;1798;48.486;9.232;2023-03-17T15:08:27;10.20;;;4.22;;
3567;SDS011;1798;48.486;9.232;2023-03-17T15:11:07;9.45;;;3.30;;
3567;SDS011;1798;48.486;9.232;2023-03-17T15:13:35;13.25;;;3.83;;
3567;SDS011;1798;48.486;9.232;2023-03-17T15:16:06;10.98;;;4.40;;
3567;SDS011;1798;48.486;9.232;2023-03-17T15:18:42;18.58;;;4.35;;
3567;SDS011;1798;48.486;9.232;2023-03-17T15:21:22;11.10;;;4.75;;
3567;SDS011;1798;48.486;9.232;2023-03-17T15:23:53;18.93;;;6.70;;
3567;SDS011;1798;48.486;9.232;2023-03-17T15:26:21;16.10;;;4.13;;
3567;SDS011;1798;48.486;9.232;2023-03-17T15:28:49;11.45;;;4.40;;
3567;SDS011;1798;48.486;9.232;2023-03-17T15:31:16;17.67;;;4.50;;